Little Rock, Illinois
Current Conditions -  °F | °C
As of 6:52 PM on Saturday 25 Oct 2014 (Local Time) from KARR Reporting Station
Clear Clear  
Wind Chill: 53°   Ceiling: Unl
Heat Index: 53°   Visibility: 10mi
Dew Point: 32°   Wind: 8mph
Humidity: 45%   Direction: 280°W
Pressure: 29.96"   Gusts: NA
Location:  41.6798°N, 88.537°W
Report Text: KARR 252352Z 28007KT 10SM CLR 12/00 A2996 RMK AO2 SLP146 T01170000 10233 20117 53006
Loading
Personal Weather Stations






























Interactive Weather Map New forecast layout! Learn more

10-Day Weather Forecast

Advertisements
Track Severe Weather on mobile